createdAt,value
2022-12-25T00:00:00.451Z,24.71
2022-12-25T00:00:15.167Z,24.71
2022-12-25T00:00:21.269Z,24.66
2022-12-25T00:00:30.568Z,24.68
2022-12-25T00:00:40.638Z,24.69
2022-12-25T00:00:50.763Z,24.69
2022-12-25T00:01:00.737Z,24.69
2022-12-25T00:01:10.822Z,24.69
2022-12-25T00:01:20.748Z,24.70
2022-12-25T00:01:30.817Z,24.70
2022-12-25T00:01:40.808Z,24.70
2022-12-25T00:01:50.829Z,24.70
2022-12-25T00:02:00.835Z,24.70
2022-12-25T00:02:10.850Z,24.70
2022-12-25T00:02:20.931Z,24.70
2022-12-25T00:02:31.205Z,24.70
2022-12-25T00:02:41.146Z,24.71
2022-12-25T00:02:51.400Z,24.70
2022-12-25T00:03:01.541Z,24.71
2022-12-25T00:03:11.671Z,24.71
2022-12-25T00:03:21.891Z,24.71
2022-12-25T00:03:31.890Z,24.70
2022-12-25T00:03:42.022Z,24.71
2022-12-25T00:03:52.082Z,24.71
2022-12-25T00:04:02.096Z,24.71
2022-12-25T00:04:12.133Z,24.71
2022-12-25T00:04:22.083Z,24.71
2022-12-25T00:04:32.338Z,24.71
2022-12-25T00:04:42.364Z,24.71
2022-12-25T00:04:52.400Z,24.72
2022-12-25T00:05:02.425Z,24.71
2022-12-25T00:05:12.434Z,24.72
2022-12-25T00:05:22.432Z,24.71
2022-12-25T00:05:32.452Z,24.72
2022-12-25T00:05:42.470Z,24.72
2022-12-25T00:05:52.465Z,24.72
2022-12-25T00:06:02.477Z,24.72
2022-12-25T00:06:12.489Z,24.72
2022-12-25T00:06:22.515Z,24.72
2022-12-25T00:06:32.501Z,24.72
2022-12-25T00:06:42.513Z,24.73
2022-12-25T00:06:52.529Z,24.72
2022-12-25T00:07:02.579Z,24.73
2022-12-25T00:07:12.580Z,24.73
2022-12-25T00:07:22.962Z,24.73
2022-12-25T00:07:32.965Z,24.74
2022-12-25T00:07:42.972Z,24.74
2022-12-25T00:07:52.985Z,24.74
2022-12-25T00:08:03.001Z,24.74
2022-12-25T00:08:13.004Z,24.74
2022-12-25T00:08:23.007Z,24.74
2022-12-25T00:08:33.023Z,24.74
2022-12-25T00:08:43.063Z,24.73
2022-12-25T00:08:53.057Z,24.74
2022-12-25T00:09:03.075Z,24.75
2022-12-25T00:09:13.069Z,24.74
2022-12-25T00:09:23.108Z,24.75
2022-12-25T00:09:33.118Z,24.75
2022-12-25T00:09:43.132Z,24.75
2022-12-25T00:09:53.141Z,24.75
2022-12-25T00:10:03.130Z,24.75
2022-12-25T00:10:13.130Z,24.76
2022-12-25T00:10:23.172Z,24.76
2022-12-25T00:10:33.152Z,24.76
2022-12-25T00:10:45.571Z,24.75
2022-12-25T00:10:53.222Z,24.73
2022-12-25T00:11:03.363Z,24.74
2022-12-25T00:11:13.623Z,24.75
2022-12-25T00:11:23.626Z,24.75
2022-12-25T00:11:33.654Z,24.75
2022-12-25T00:11:43.626Z,24.76
2022-12-25T00:11:53.630Z,24.76
2022-12-25T00:12:03.764Z,24.76
2022-12-25T00:12:13.774Z,24.76
2022-12-25T00:12:23.791Z,24.77
2022-12-25T00:12:33.799Z,24.77
2022-12-25T00:12:43.815Z,24.77
2022-12-25T00:12:54.073Z,24.78
2022-12-25T00:13:04.075Z,24.78
2022-12-25T00:13:14.072Z,24.78
2022-12-25T00:13:24.449Z,24.78
2022-12-25T00:13:34.501Z,24.78
2022-12-25T00:13:44.508Z,24.78
2022-12-25T00:13:54.523Z,24.78
2022-12-25T00:14:04.523Z,24.79
2022-12-25T00:14:14.526Z,24.79
2022-12-25T00:14:24.549Z,24.80
2022-12-25T00:14:34.576Z,24.80
2022-12-25T00:14:44.600Z,24.79
2022-12-25T00:14:54.615Z,24.80
2022-12-25T00:15:04.608Z,24.80
2022-12-25T00:15:14.628Z,24.80
2022-12-25T00:15:24.762Z,24.80
2022-12-25T00:15:34.773Z,24.81
2022-12-25T00:15:44.875Z,24.80
2022-12-25T00:15:54.821Z,24.81
2022-12-25T00:16:04.929Z,24.80
2022-12-25T00:16:15.100Z,24.81
2022-12-25T00:16:25.184Z,24.81
2022-12-25T00:16:35.300Z,24.81
2022-12-25T00:16:45.731Z,24.81
2022-12-25T00:16:55.664Z,24.81
2022-12-25T00:17:05.788Z,24.82
2022-12-25T00:17:16.046Z,24.82
2022-12-25T00:17:26.061Z,24.82
2022-12-25T00:17:36.054Z,24.82
2022-12-25T00:17:46.072Z,24.83
2022-12-25T00:17:56.080Z,24.83
2022-12-25T00:18:06.085Z,24.83
2022-12-25T00:18:16.095Z,24.83
2022-12-25T00:18:26.114Z,24.83
2022-12-25T00:18:36.126Z,24.84
2022-12-25T00:18:46.139Z,24.84
2022-12-25T00:18:56.133Z,24.84
2022-12-25T00:19:06.174Z,24.84
2022-12-25T00:19:16.163Z,24.85
2022-12-25T00:19:26.171Z,24.85
2022-12-25T00:19:36.180Z,24.86
2022-12-25T00:19:46.196Z,24.86
2022-12-25T00:19:56.196Z,24.86
2022-12-25T00:20:06.237Z,24.86
2022-12-25T00:20:16.265Z,24.87
2022-12-25T00:20:26.267Z,24.86
2022-12-25T00:20:36.282Z,24.86
2022-12-25T00:20:46.292Z,24.87
2022-12-25T00:20:56.310Z,24.87
2022-12-25T00:21:06.327Z,24.87
2022-12-25T00:21:16.312Z,24.88
2022-12-25T00:21:26.331Z,24.88
2022-12-25T00:21:36.366Z,24.88
2022-12-25T00:21:46.406Z,24.88
2022-12-25T00:21:56.422Z,24.89
2022-12-25T00:22:06.429Z,24.89
2022-12-25T00:22:16.431Z,24.89
2022-12-25T00:22:26.437Z,24.90
2022-12-25T00:22:36.458Z,24.90
2022-12-25T00:22:46.454Z,24.90
2022-12-25T00:22:56.450Z,24.90
2022-12-25T00:23:06.485Z,24.91
2022-12-25T00:23:16.496Z,24.92
2022-12-25T00:23:26.513Z,24.92
2022-12-25T00:23:36.514Z,24.91
2022-12-25T00:23:46.519Z,24.93
2022-12-25T00:23:56.523Z,24.92
2022-12-25T00:24:06.524Z,24.93
2022-12-25T00:24:16.551Z,24.93
2022-12-25T00:24:26.531Z,24.94
2022-12-25T00:24:36.687Z,24.94
2022-12-25T00:24:46.938Z,24.94
2022-12-25T00:24:56.948Z,24.94
2022-12-25T00:25:06.951Z,24.95
2022-12-25T00:25:16.963Z,24.95
2022-12-25T00:25:26.974Z,24.95
2022-12-25T00:25:36.979Z,24.95
2022-12-25T00:25:47.000Z,24.95
2022-12-25T00:25:56.996Z,24.96
2022-12-25T00:26:07.036Z,24.96
2022-12-25T00:26:17.045Z,24.97
2022-12-25T00:26:27.044Z,24.96
2022-12-25T00:26:37.084Z,24.96
2022-12-25T00:26:47.067Z,24.97
2022-12-25T00:26:57.189Z,24.98
2022-12-25T00:27:07.196Z,24.98
2022-12-25T00:27:17.208Z,24.99
2022-12-25T00:27:27.209Z,24.99
2022-12-25T00:27:37.461Z,24.99
2022-12-25T00:27:47.460Z,24.99
2022-12-25T00:27:57.476Z,24.99
2022-12-25T00:28:07.465Z,25.00
2022-12-25T00:28:17.588Z,25.00
2022-12-25T00:28:27.628Z,25.00
2022-12-25T00:28:37.630Z,25.00
2022-12-25T00:28:47.627Z,25.01
2022-12-25T00:28:57.735Z,25.01
2022-12-25T00:29:07.747Z,25.01
2022-12-25T00:29:17.888Z,25.02
2022-12-25T00:29:27.899Z,25.02
2022-12-25T00:29:37.909Z,25.02
2022-12-25T00:29:47.891Z,25.02
2022-12-25T00:29:57.898Z,25.02
2022-12-25T00:30:07.914Z,25.02
2022-12-25T00:30:18.017Z,25.03
2022-12-25T00:30:28.031Z,25.03
2022-12-25T00:30:38.045Z,25.03
2022-12-25T00:30:48.052Z,25.03
2022-12-25T00:30:58.355Z,25.04
2022-12-25T00:31:08.476Z,25.05
2022-12-25T00:31:18.443Z,25.05
2022-12-25T00:31:28.907Z,25.04
2022-12-25T00:31:38.929Z,25.05
2022-12-25T00:31:49.020Z,25.04
2022-12-25T00:31:59.335Z,25.05
2022-12-25T00:32:09.240Z,25.05
2022-12-25T00:32:19.250Z,25.05
2022-12-25T00:32:29.248Z,25.05
2022-12-25T00:32:39.272Z,25.05
2022-12-25T00:32:49.396Z,25.06
2022-12-25T00:32:59.273Z,25.06
2022-12-25T00:33:09.298Z,25.06
2022-12-25T00:33:19.296Z,25.07
2022-12-25T00:33:29.302Z,25.07
2022-12-25T00:33:39.332Z,25.07
2022-12-25T00:33:49.329Z,25.07
2022-12-25T00:33:59.332Z,25.07
2022-12-25T00:34:09.336Z,25.07
2022-12-25T00:34:19.344Z,25.08
2022-12-25T00:34:29.361Z,25.08
2022-12-25T00:34:39.472Z,25.08
2022-12-25T00:34:49.741Z,25.08
2022-12-25T00:34:59.875Z,25.09
2022-12-25T00:35:09.866Z,25.09
2022-12-25T00:35:20.117Z,25.09
2022-12-25T00:35:30.115Z,25.09
2022-12-25T00:35:40.239Z,25.10
2022-12-25T00:35:50.492Z,25.10
2022-12-25T00:36:00.627Z,25.10
2022-12-25T00:36:10.635Z,25.11
2022-12-25T00:36:20.906Z,25.12
2022-12-25T00:36:33.687Z,25.11
2022-12-25T00:36:42.155Z,25.06
2022-12-25T00:36:51.071Z,25.08
2022-12-25T00:37:01.215Z,25.09
2022-12-25T00:37:11.201Z,25.09
2022-12-25T00:37:21.340Z,25.11
2022-12-25T00:37:31.481Z,25.11
2022-12-25T00:37:41.486Z,25.11
2022-12-25T00:37:51.500Z,25.12
2022-12-25T00:38:01.510Z,25.12
2022-12-25T00:38:11.529Z,25.12
2022-12-25T00:38:21.538Z,25.12
2022-12-25T00:38:31.542Z,25.14
2022-12-25T00:38:41.552Z,25.13
2022-12-25T00:38:51.567Z,25.14
2022-12-25T00:39:01.568Z,25.13
2022-12-25T00:39:11.601Z,25.14
2022-12-25T00:39:21.590Z,25.14
2022-12-25T00:39:31.596Z,25.15
2022-12-25T00:39:41.717Z,25.15
2022-12-25T00:39:51.723Z,25.16
2022-12-25T00:40:01.738Z,25.16
2022-12-25T00:40:11.742Z,25.16
2022-12-25T00:40:22.016Z,25.16
2022-12-25T00:40:32.107Z,25.17
2022-12-25T00:40:42.117Z,25.17
2022-12-25T00:40:52.139Z,25.17
2022-12-25T00:41:02.119Z,25.18
2022-12-25T00:41:12.243Z,25.18
2022-12-25T00:41:22.234Z,25.17
2022-12-25T00:41:32.236Z,25.19
2022-12-25T00:41:42.376Z,25.19
2022-12-25T00:41:52.275Z,25.19
2022-12-25T00:42:02.535Z,25.19
2022-12-25T00:42:12.726Z,25.19
2022-12-25T00:42:22.614Z,25.20
2022-12-25T00:42:32.613Z,25.20
2022-12-25T00:42:42.624Z,25.19
2022-12-25T00:42:52.620Z,25.19
2022-12-25T00:43:02.627Z,25.20
2022-12-25T00:43:12.735Z,25.20
2022-12-25T00:43:22.727Z,25.20
2022-12-25T00:43:32.743Z,25.21
2022-12-25T00:43:42.768Z,25.21
2022-12-25T00:43:52.767Z,25.21
2022-12-25T00:44:02.766Z,25.21
2022-12-25T00:44:12.820Z,25.22
2022-12-25T00:44:22.830Z,25.21
2022-12-25T00:44:32.845Z,25.22
2022-12-25T00:44:42.985Z,25.22
2022-12-25T00:44:53.244Z,25.21
2022-12-25T00:45:03.247Z,25.21
2022-12-25T00:45:15.820Z,25.22
2022-12-25T00:45:23.367Z,25.19
2022-12-25T00:45:33.464Z,25.20
2022-12-25T00:45:43.557Z,25.21
2022-12-25T00:45:53.519Z,25.21
2022-12-25T00:46:03.620Z,25.22
2022-12-25T00:46:13.861Z,25.22
2022-12-25T00:46:23.752Z,25.22
2022-12-25T00:46:33.808Z,25.22
2022-12-25T00:46:43.755Z,25.22
2022-12-25T00:46:53.866Z,25.22
2022-12-25T00:47:03.873Z,25.22
2022-12-25T00:47:13.852Z,25.23
2022-12-25T00:47:23.943Z,25.23
2022-12-25T00:47:34.032Z,25.23
2022-12-25T00:47:44.019Z,25.23
2022-12-25T00:47:54.018Z,25.24
2022-12-25T00:48:04.422Z,25.24
2022-12-25T00:48:14.415Z,25.24
2022-12-25T00:48:24.423Z,25.24
2022-12-25T00:48:34.434Z,25.23
2022-12-25T00:48:44.448Z,25.24
2022-12-25T00:48:54.455Z,25.24
2022-12-25T00:49:04.501Z,25.24
2022-12-25T00:49:14.490Z,25.25
2022-12-25T00:49:24.601Z,25.25
2022-12-25T00:49:34.601Z,25.26
2022-12-25T00:49:44.865Z,25.26
2022-12-25T00:49:54.862Z,25.25
2022-12-25T00:50:04.862Z,25.26
2022-12-25T00:50:14.864Z,25.26
2022-12-25T00:50:24.872Z,25.26
2022-12-25T00:50:34.874Z,25.26
2022-12-25T00:50:44.893Z,25.25
2022-12-25T00:50:54.947Z,25.26
2022-12-25T00:51:04.956Z,25.27
2022-12-25T00:51:14.952Z,25.27
2022-12-25T00:51:24.966Z,25.27
2022-12-25T00:51:34.993Z,25.27
2022-12-25T00:51:45.001Z,25.27
2022-12-25T00:51:54.992Z,25.27
2022-12-25T00:52:05.111Z,25.27
2022-12-25T00:52:15.114Z,25.28
2022-12-25T00:52:25.137Z,25.28
2022-12-25T00:52:35.391Z,25.28
2022-12-25T00:52:45.393Z,25.29
2022-12-25T00:52:55.394Z,25.29
2022-12-25T00:53:05.773Z,25.29
2022-12-25T00:53:15.792Z,25.30
2022-12-25T00:53:25.794Z,25.30
2022-12-25T00:53:35.799Z,25.30
2022-12-25T00:53:45.814Z,25.30
2022-12-25T00:53:55.817Z,25.30
2022-12-25T00:54:05.836Z,25.31
2022-12-25T00:54:15.843Z,25.30
2022-12-25T00:54:25.845Z,25.30
2022-12-25T00:54:35.859Z,25.31
2022-12-25T00:54:45.869Z,25.30
2022-12-25T00:54:55.921Z,25.31
2022-12-25T00:55:05.927Z,25.32
2022-12-25T00:55:15.932Z,25.32
2022-12-25T00:55:25.943Z,25.32
2022-12-25T00:55:35.971Z,25.32
2022-12-25T00:55:45.963Z,25.32
2022-12-25T00:55:55.974Z,25.32
2022-12-25T00:56:05.986Z,25.31
2022-12-25T00:56:15.999Z,25.32
2022-12-25T00:56:26.118Z,25.32
2022-12-25T00:56:36.151Z,25.32
2022-12-25T00:56:46.141Z,25.32
2022-12-25T00:56:56.145Z,25.32
2022-12-25T00:57:06.409Z,25.33
2022-12-25T00:57:16.413Z,25.33
2022-12-25T00:57:26.531Z,25.33
2022-12-25T00:57:36.813Z,25.34
2022-12-25T00:57:46.796Z,25.34
2022-12-25T00:57:56.810Z,25.34
2022-12-25T00:58:07.185Z,25.34
2022-12-25T00:58:17.184Z,25.34
2022-12-25T00:58:27.186Z,25.35
2022-12-25T00:58:37.204Z,25.35
2022-12-25T00:58:47.238Z,25.35
2022-12-25T00:58:57.215Z,25.35
2022-12-25T00:59:07.222Z,25.35
2022-12-25T00:59:17.237Z,25.35
2022-12-25T00:59:27.252Z,25.35
2022-12-25T00:59:37.251Z,25.35
2022-12-25T00:59:47.285Z,25.35
2022-12-25T00:59:57.292Z,25.35
2022-12-25T01:00:07.420Z,25.36
2022-12-25T01:00:17.429Z,25.36
2022-12-25T01:00:27.439Z,25.36
2022-12-25T01:00:37.492Z,25.36
2022-12-25T01:00:47.648Z,25.35
2022-12-25T01:00:57.901Z,25.36
2022-12-25T01:01:07.990Z,25.36
2022-12-25T01:01:18.181Z,25.36
2022-12-25T01:01:28.470Z,25.36
2022-12-25T01:01:38.560Z,25.36
2022-12-25T01:01:48.568Z,25.35
2022-12-25T01:01:58.543Z,25.35
2022-12-25T01:02:08.644Z,25.36
2022-12-25T01:02:18.680Z,25.35
2022-12-25T01:02:28.687Z,25.35
2022-12-25T01:02:39.017Z,25.35
2022-12-25T01:02:48.986Z,25.36
2022-12-25T01:02:59.047Z,25.36
2022-12-25T01:03:08.987Z,25.36
2022-12-25T01:03:19.171Z,25.36
2022-12-25T01:03:29.158Z,25.36
2022-12-25T01:03:39.176Z,25.37
2022-12-25T01:03:49.183Z,25.37
2022-12-25T01:03:59.190Z,25.37
2022-12-25T01:04:09.304Z,25.39
2022-12-25T01:04:19.436Z,25.38
2022-12-25T01:04:29.457Z,25.38
2022-12-25T01:04:39.459Z,25.39
2022-12-25T01:04:49.488Z,25.39
2022-12-25T01:04:59.485Z,25.38
2022-12-25T01:05:09.490Z,25.38
2022-12-25T01:05:19.494Z,25.39
2022-12-25T01:05:29.519Z,25.39
2022-12-25T01:05:39.518Z,25.39
2022-12-25T01:05:49.566Z,25.39
2022-12-25T01:05:59.555Z,25.40
2022-12-25T01:06:09.589Z,25.39
2022-12-25T01:06:19.591Z,25.39
2022-12-25T01:06:29.736Z,25.40
2022-12-25T01:06:39.740Z,25.39
2022-12-25T01:06:49.740Z,25.39
2022-12-25T01:06:59.744Z,25.41
2022-12-25T01:07:09.744Z,25.41
2022-12-25T01:07:19.748Z,25.41
2022-12-25T01:07:29.762Z,25.40
2022-12-25T01:07:39.880Z,25.41
2022-12-25T01:07:49.878Z,25.40
2022-12-25T01:08:00.041Z,25.40
2022-12-25T01:08:10.075Z,25.41
2022-12-25T01:08:20.073Z,25.41
2022-12-25T01:08:30.219Z,25.41
2022-12-25T01:08:40.228Z,25.42
2022-12-25T01:08:50.236Z,25.42
2022-12-25T01:09:00.617Z,25.42
2022-12-25T01:09:10.616Z,25.42
2022-12-25T01:09:20.620Z,25.41
2022-12-25T01:09:30.615Z,25.42
2022-12-25T01:09:40.748Z,25.42
2022-12-25T01:09:50.761Z,25.42
2022-12-25T01:10:00.773Z,25.42
2022-12-25T01:10:10.815Z,25.41
2022-12-25T01:10:20.856Z,25.42
2022-12-25T01:10:30.867Z,25.42
2022-12-25T01:10:41.101Z,25.42
2022-12-25T01:10:51.104Z,25.41
2022-12-25T01:11:01.233Z,25.41
2022-12-25T01:11:11.494Z,25.41
2022-12-25T01:11:21.615Z,25.42
2022-12-25T01:11:31.627Z,25.41
2022-12-25T01:11:41.876Z,25.42
2022-12-25T01:11:51.877Z,25.42
2022-12-25T01:12:02.032Z,25.42
2022-12-25T01:12:12.386Z,25.42
2022-12-25T01:12:22.382Z,25.43
2022-12-25T01:12:32.381Z,25.42
2022-12-25T01:12:42.641Z,25.42
2022-12-25T01:12:52.651Z,25.42
2022-12-25T01:13:02.652Z,25.43
2022-12-25T01:13:12.662Z,25.43
2022-12-25T01:13:22.676Z,25.43
2022-12-25T01:13:32.679Z,25.43
2022-12-25T01:13:42.692Z,25.42
2022-12-25T01:13:52.729Z,25.42
2022-12-25T01:14:02.708Z,25.43
2022-12-25T01:14:12.738Z,25.43
2022-12-25T01:14:22.726Z,25.43
2022-12-25T01:14:32.750Z,25.43
2022-12-25T01:14:42.746Z,25.43
2022-12-25T01:14:52.764Z,25.43
2022-12-25T01:15:02.767Z,25.43
2022-12-25T01:15:12.792Z,25.42
2022-12-25T01:15:22.795Z,25.43
2022-12-25T01:15:32.794Z,25.44
2022-12-25T01:15:42.919Z,25.44
2022-12-25T01:15:52.962Z,25.44
2022-12-25T01:16:02.986Z,25.44
2022-12-25T01:16:12.996Z,25.44
2022-12-25T01:16:23.012Z,25.45
2022-12-25T01:16:33.117Z,25.45
2022-12-25T01:16:43.412Z,25.45
2022-12-25T01:16:53.320Z,25.45
2022-12-25T01:17:03.334Z,25.46
2022-12-25T01:17:13.353Z,25.46
2022-12-25T01:17:23.386Z,25.45
2022-12-25T01:17:33.372Z,25.45
2022-12-25T01:17:43.505Z,25.45
2022-12-25T01:17:53.509Z,25.46
2022-12-25T01:18:07.757Z,25.46
2022-12-25T01:18:13.728Z,25.41
2022-12-25T01:18:23.982Z,25.42
2022-12-25T01:18:33.981Z,25.43
2022-12-25T01:18:43.993Z,25.43
2022-12-25T01:18:53.991Z,25.43
2022-12-25T01:19:04.002Z,25.44
2022-12-25T01:19:14.013Z,25.45
2022-12-25T01:19:24.025Z,25.45
2022-12-25T01:19:34.045Z,25.44
2022-12-25T01:19:44.048Z,25.44
2022-12-25T01:19:54.062Z,25.45
2022-12-25T01:20:04.459Z,25.45
2022-12-25T01:20:14.449Z,25.45
2022-12-25T01:20:24.556Z,25.45
2022-12-25T01:20:34.812Z,25.45
2022-12-25T01:20:44.943Z,25.45
2022-12-25T01:20:54.964Z,25.46
2022-12-25T01:21:05.243Z,25.46
2022-12-25T01:21:15.243Z,25.46
2022-12-25T01:21:25.244Z,25.46
2022-12-25T01:21:35.263Z,25.46
2022-12-25T01:21:45.284Z,25.46
2022-12-25T01:21:55.275Z,25.46
2022-12-25T01:22:05.288Z,25.46
2022-12-25T01:22:15.309Z,25.46
2022-12-25T01:22:25.440Z,25.46
2022-12-25T01:22:35.464Z,25.46
2022-12-25T01:22:45.719Z,25.47
2022-12-25T01:22:55.714Z,25.46
2022-12-25T01:23:05.717Z,25.46
2022-12-25T01:23:15.714Z,25.46
2022-12-25T01:23:25.719Z,25.46
2022-12-25T01:23:35.715Z,25.46
2022-12-25T01:23:45.837Z,25.46
2022-12-25T01:23:55.841Z,25.46
2022-12-25T01:24:05.963Z,25.46
2022-12-25T01:24:15.973Z,25.47
2022-12-25T01:24:26.133Z,25.46
2022-12-25T01:24:36.122Z,25.47
2022-12-25T01:24:46.117Z,25.46
2022-12-25T01:24:56.118Z,25.46
2022-12-25T01:25:06.250Z,25.46
2022-12-25T01:25:16.249Z,25.47
2022-12-25T01:25:26.368Z,25.47
2022-12-25T01:25:36.372Z,25.46
2022-12-25T01:25:46.495Z,25.46
2022-12-25T01:25:56.494Z,25.46
2022-12-25T01:26:06.630Z,25.47
2022-12-25T01:26:16.631Z,25.47
2022-12-25T01:26:26.644Z,25.47
2022-12-25T01:26:36.925Z,25.47
2022-12-25T01:26:47.039Z,25.46
2022-12-25T01:26:57.033Z,25.46
2022-12-25T01:27:07.291Z,25.47
2022-12-25T01:27:17.293Z,25.46
2022-12-25T01:27:27.307Z,25.47
2022-12-25T01:27:37.331Z,25.47
2022-12-25T01:27:47.340Z,25.47
2022-12-25T01:27:57.363Z,25.47
2022-12-25T01:28:07.344Z,25.47
2022-12-25T01:28:17.465Z,25.48
2022-12-25T01:28:27.497Z,25.49
2022-12-25T01:28:37.480Z,25.48
2022-12-25T01:28:47.484Z,25.48
2022-12-25T01:28:57.527Z,25.49
2022-12-25T01:29:07.523Z,25.48
2022-12-25T01:29:17.516Z,25.50
2022-12-25T01:29:27.579Z,25.49
2022-12-25T01:29:37.573Z,25.49
2022-12-25T01:29:47.584Z,25.49
2022-12-25T01:29:57.597Z,25.50
2022-12-25T01:30:07.720Z,25.49
2022-12-25T01:30:17.715Z,25.49
2022-12-25T01:30:27.735Z,25.49
2022-12-25T01:30:37.751Z,25.49
2022-12-25T01:30:47.873Z,25.49
2022-12-25T01:30:57.876Z,25.49
2022-12-25T01:31:08.036Z,25.50
2022-12-25T01:31:18.199Z,25.50
2022-12-25T01:31:28.190Z,25.50
2022-12-25T01:31:38.241Z,25.49
2022-12-25T01:31:48.344Z,25.50
2022-12-25T01:31:58.435Z,25.50
2022-12-25T01:32:08.535Z,25.50
2022-12-25T01:32:18.673Z,25.49
2022-12-25T01:32:28.794Z,25.49
2022-12-25T01:32:38.790Z,25.50
2022-12-25T01:32:49.041Z,25.51
2022-12-25T01:32:59.041Z,25.51
2022-12-25T01:33:09.046Z,25.51
2022-12-25T01:33:19.052Z,25.52
2022-12-25T01:33:29.090Z,25.51
2022-12-25T01:33:39.094Z,25.51
2022-12-25T01:33:49.092Z,25.52
2022-12-25T01:33:59.098Z,25.52
2022-12-25T01:34:09.096Z,25.52
2022-12-25T01:34:19.108Z,25.51
2022-12-25T01:34:29.126Z,25.51
2022-12-25T01:34:39.125Z,25.51
2022-12-25T01:34:53.862Z,25.50
2022-12-25T01:34:59.256Z,25.44
2022-12-25T01:35:09.267Z,25.46
2022-12-25T01:35:19.270Z,25.47
2022-12-25T01:35:29.311Z,25.48
2022-12-25T01:35:39.322Z,25.48
2022-12-25T01:35:49.464Z,25.49
2022-12-25T01:35:59.454Z,25.50
2022-12-25T01:36:09.577Z,25.49
2022-12-25T01:36:19.836Z,25.50
2022-12-25T01:36:29.860Z,25.51
2022-12-25T01:36:39.846Z,25.51
2022-12-25T01:36:50.216Z,25.51
2022-12-25T01:37:00.259Z,25.52
2022-12-25T01:37:10.262Z,25.53
2022-12-25T01:37:20.265Z,25.53
2022-12-25T01:37:30.273Z,25.53
2022-12-25T01:37:40.303Z,25.53
2022-12-25T01:37:50.276Z,25.53
2022-12-25T01:38:00.334Z,25.53
2022-12-25T01:38:10.311Z,25.53
2022-12-25T01:38:20.314Z,25.53
2022-12-25T01:38:30.698Z,25.55
2022-12-25T01:38:40.705Z,25.55
2022-12-25T01:38:50.717Z,25.55
2022-12-25T01:39:00.728Z,25.55
2022-12-25T01:39:10.733Z,25.55
2022-12-25T01:39:20.744Z,25.56
2022-12-25T01:39:30.735Z,25.56
2022-12-25T01:39:40.741Z,25.57
2022-12-25T01:39:50.873Z,25.57
2022-12-25T01:40:00.896Z,25.57
2022-12-25T01:40:11.162Z,25.58
2022-12-25T01:40:21.172Z,25.57
2022-12-25T01:40:31.177Z,25.58
2022-12-25T01:40:41.182Z,25.59
2022-12-25T01:40:51.191Z,25.59
2022-12-25T01:41:01.190Z,25.59
2022-12-25T01:41:11.195Z,25.58
2022-12-25T01:41:21.204Z,25.59
2022-12-25T01:41:31.328Z,25.59
2022-12-25T01:41:41.319Z,25.59
2022-12-25T01:41:51.570Z,25.60
2022-12-25T01:42:01.600Z,25.60
2022-12-25T01:42:11.579Z,25.60
2022-12-25T01:42:21.583Z,25.60
2022-12-25T01:42:31.715Z,25.60
2022-12-25T01:42:41.714Z,25.60
2022-12-25T01:42:51.751Z,25.61
2022-12-25T01:43:01.747Z,25.61
2022-12-25T01:43:17.043Z,25.61
2022-12-25T01:43:21.883Z,25.55
2022-12-25T01:43:32.006Z,25.57
2022-12-25T01:43:42.042Z,25.57
2022-12-25T01:43:52.172Z,25.58
2022-12-25T01:44:02.249Z,25.59
2022-12-25T01:44:12.235Z,25.60
2022-12-25T01:44:22.243Z,25.60
2022-12-25T01:44:32.236Z,25.59
2022-12-25T01:44:42.488Z,25.58
2022-12-25T01:44:52.609Z,25.57
2022-12-25T01:45:02.605Z,25.57
2022-12-25T01:45:12.872Z,25.57
2022-12-25T01:45:22.935Z,25.57
2022-12-25T01:45:33.175Z,25.57
2022-12-25T01:45:43.255Z,25.56
2022-12-25T01:45:53.367Z,25.56
2022-12-25T01:46:03.391Z,25.57
2022-12-25T01:46:13.855Z,25.56
2022-12-25T01:46:23.857Z,25.57
2022-12-25T01:46:33.772Z,25.57
2022-12-25T01:46:43.782Z,25.58
2022-12-25T01:46:53.793Z,25.59
2022-12-25T01:47:03.802Z,25.59
2022-12-25T01:47:13.823Z,25.59
2022-12-25T01:47:23.808Z,25.59
2022-12-25T01:47:33.843Z,25.60
2022-12-25T01:47:43.831Z,25.59
2022-12-25T01:47:54.196Z,25.60
2022-12-25T01:48:04.194Z,25.60
2022-12-25T01:48:14.322Z,25.61
2022-12-25T01:48:24.580Z,25.60
2022-12-25T01:48:34.606Z,25.61
2022-12-25T01:48:44.603Z,25.61
2022-12-25T01:48:54.615Z,25.61
2022-12-25T01:49:04.620Z,25.61
2022-12-25T01:49:14.607Z,25.61
2022-12-25T01:49:24.602Z,25.62
2022-12-25T01:49:34.622Z,25.63
2022-12-25T01:49:44.622Z,25.62
2022-12-25T01:49:54.763Z,25.62
2022-12-25T01:50:04.997Z,25.62
2022-12-25T01:50:14.997Z,25.62
2022-12-25T01:50:25.018Z,25.61
2022-12-25T01:50:35.010Z,25.61
2022-12-25T01:50:45.027Z,25.61
2022-12-25T01:50:55.035Z,25.61
2022-12-25T01:51:05.039Z,25.61
2022-12-25T01:51:15.050Z,25.61
2022-12-25T01:51:25.160Z,25.63
2022-12-25T01:51:35.186Z,25.61
2022-12-25T01:51:45.447Z,25.61
2022-12-25T01:51:55.436Z,25.61
2022-12-25T01:52:05.550Z,25.60
2022-12-25T01:52:20.243Z,25.61
2022-12-25T01:52:25.952Z,25.56
2022-12-25T01:52:35.936Z,25.58
2022-12-25T01:52:45.945Z,25.59
2022-12-25T01:52:55.948Z,25.59
2022-12-25T01:53:06.071Z,25.59
2022-12-25T01:53:16.074Z,25.58
2022-12-25T01:53:26.207Z,25.59
2022-12-25T01:53:36.198Z,25.60
2022-12-25T01:53:46.322Z,25.60
2022-12-25T01:53:56.318Z,25.60
2022-12-25T01:54:06.444Z,25.60
2022-12-25T01:54:16.707Z,25.59
2022-12-25T01:54:26.838Z,25.59
2022-12-25T01:54:36.858Z,25.59
2022-12-25T01:54:47.097Z,25.59
2022-12-25T01:54:57.137Z,25.59
2022-12-25T01:55:07.115Z,25.60
2022-12-25T01:55:17.121Z,25.60
2022-12-25T01:55:27.140Z,25.59
2022-12-25T01:55:37.167Z,25.59
2022-12-25T01:55:47.147Z,25.59
2022-12-25T01:55:57.156Z,25.59
2022-12-25T01:56:07.291Z,25.59
2022-12-25T01:56:17.271Z,25.59
2022-12-25T01:56:27.540Z,25.59
2022-12-25T01:56:37.527Z,25.59
2022-12-25T01:56:47.655Z,25.59
2022-12-25T01:56:57.970Z,25.59
2022-12-25T01:57:07.951Z,25.59
2022-12-25T01:57:17.950Z,25.58
2022-12-25T01:57:27.955Z,25.58
2022-12-25T01:57:37.963Z,25.57
2022-12-25T01:57:47.972Z,25.58
2022-12-25T01:57:57.987Z,25.58
2022-12-25T01:58:07.984Z,25.59
2022-12-25T01:58:17.986Z,25.60
2022-12-25T01:58:28.118Z,25.60
2022-12-25T01:58:38.372Z,25.60
2022-12-25T01:58:48.386Z,25.60
2022-12-25T01:58:58.372Z,25.60
2022-12-25T01:59:08.409Z,25.60
2022-12-25T01:59:18.401Z,25.61
2022-12-25T01:59:28.407Z,25.60
2022-12-25T01:59:38.401Z,25.61
2022-12-25T01:59:48.531Z,25.62
2022-12-25T01:59:58.543Z,25.62
2022-12-25T02:00:08.546Z,25.63
2022-12-25T02:00:18.807Z,25.64
2022-12-25T02:00:28.923Z,25.63
2022-12-25T02:00:38.970Z,25.64
2022-12-25T02:00:49.287Z,25.64
2022-12-25T02:00:59.389Z,25.64
2022-12-25T02:01:09.478Z,25.64
2022-12-25T02:01:19.606Z,25.64
2022-12-25T02:01:29.682Z,25.64
2022-12-25T02:01:39.544Z,25.65
2022-12-25T02:01:49.639Z,25.64
2022-12-25T02:02:00.120Z,25.64
2022-12-25T02:02:09.975Z,25.65
2022-12-25T02:02:20.013Z,25.65
2022-12-25T02:02:30.152Z,25.66
2022-12-25T02:02:40.135Z,25.65
2022-12-25T02:02:50.347Z,25.66
2022-12-25T02:03:00.203Z,25.66
2022-12-25T02:03:10.416Z,25.66
2022-12-25T02:03:20.611Z,25.65
2022-12-25T02:03:30.562Z,25.66
2022-12-25T02:03:40.487Z,25.65
2022-12-25T02:03:50.495Z,25.65
2022-12-25T02:04:00.502Z,25.66
2022-12-25T02:04:10.522Z,25.66
2022-12-25T02:04:20.538Z,25.66
2022-12-25T02:04:30.535Z,25.65
2022-12-25T02:04:40.647Z,25.65
2022-12-25T02:04:50.908Z,25.66
2022-12-25T02:05:00.924Z,25.66
2022-12-25T02:05:10.917Z,25.66
2022-12-25T02:05:20.949Z,25.65
2022-12-25T02:05:30.949Z,25.65
2022-12-25T02:05:40.982Z,25.65
2022-12-25T02:05:50.973Z,25.65
2022-12-25T02:06:00.970Z,25.66
2022-12-25T02:06:10.978Z,25.65
2022-12-25T02:06:20.987Z,25.66
2022-12-25T02:06:30.990Z,25.66
2022-12-25T02:06:41.005Z,25.66
2022-12-25T02:06:51.018Z,25.66
2022-12-25T02:07:01.020Z,25.66
2022-12-25T02:07:11.133Z,25.66
2022-12-25T02:07:21.134Z,25.66
2022-12-25T02:07:31.260Z,25.66
2022-12-25T02:07:41.409Z,25.66
2022-12-25T02:07:51.395Z,25.66
2022-12-25T02:08:01.408Z,25.66
2022-12-25T02:08:11.436Z,25.67
2022-12-25T02:08:21.450Z,25.66
2022-12-25T02:08:31.591Z,25.67
2022-12-25T02:08:41.599Z,25.66
2022-12-25T02:08:51.593Z,25.66
2022-12-25T02:09:01.617Z,25.66
2022-12-25T02:09:11.597Z,25.66
2022-12-25T02:09:21.857Z,25.66